Pagrindinis puslapis
METAR-TAF:

METAR-TAF

Oro uostai :

Al-Hasa, Saudo Arabija

platuma: 25-18N, ilguma: 049-29E, Aukštis: 179 m

Dabartinis oras

Ataskaita buvo paskelbta 20 minutes, ne 04:00 UTC
Ramus vėjas
Temperatūra 25°C
Drėgmė 36%
Slėgis 1009 hPa
Matomumas 10 km arba daugiau
nėra debesų žemiau 1500 m ir nėra kamuolinių lietaus debesų

METAR: OEAH 220400Z 00000KT CAVOK 25/09 Q1009 NOSIG

Laikas: 07:20 (04:20 UTC)

Prognozė

Ataskaita buvo paskelbta 6 valandos ir 15 minutes, ne 22:05 UTC
Prognozė galioja nuo 22 metu 00 UTC su 23 metu 06 UTC
Vėjas 15 kt iš Pietų/Pietvakarių
Matomumas 10 km arba daugiau
nėra debesų žemiau 1500 m ir nėra kamuolinių lietaus debesų
Tapsmas
nuo 22 metu 08 UTC su 22 metu 10 UTC
Vėjas 18 kt iš Šiaurės Vakarų
Matomumas: 5000 m
Dulkes pustymas
Tikimybė 30% :
Laikinai
nuo 22 metu 15 UTC su 23 metu 00 UTC
Matomumas: 3000 m

TAF: OEAH 212205Z 2200/2306 20015KT CAVOK BECMG 2208/2210 31018KT 5000 BLDU PROB30 TEMPO 2215/2300 3000

Orai ataskaitas ir orų prognozės (METAR, TAF).

turimą stotys yra geltonos ir raudonos taškus žemėlapyje.

Perkelti pele per norėdami pamatyti stoties vardą.

Tada spustelėkite, norėdami matyti oro stebėjimo ir prognozės.

Norėdami pakeisti žemėlapį: spustelėkite ant žalios mygtukų su juodo kryžiaus žemyn,; žalią mygtuką su brūkšneliu, jei norite nutolinti; arba žalių rodyklių gretimoms žemėlapius.


METAR-TAF: